Time;durP1;ratioP1;P1;durP2;ratioP2;P2;SDS_P1;SDS_P2;PMS_P1;PMS_P2;Temp;Humidity;BMP_temperature;BMP_pressure;BME280_temperature;BME280_humidity;BME280_pressure;Samples;Min_cycle;Max_cycle;Signal;HPM_P1;HPM_P2
2021/12/28 00:01:17;;;;;;;22.60;14.70;;;5.10;99.90;;;;;;5125907;27;20126;-84
2021/12/28 00:04:02;;;;;;;21.80;14.90;;;5.10;99.90;;;;;;5153215;27;20034;-83
2021/12/28 00:06:46;;;;;;;23.55;14.82;;;5.20;99.90;;;;;;5116660;27;20444;-83
2021/12/28 00:09:30;;;;;;;26.30;15.80;;;5.20;99.90;;;;;;5118911;27;20035;-83
2021/12/28 00:12:14;;;;;;;;;;;5.50;99.90;;;;;;5104243;27;20528;-83
2021/12/28 00:15:06;;;;;;;25.70;14.50;;;5.70;99.90;;;;;;5150816;27;19929;-83
2021/12/28 00:18:00;;;;;;;25.08;15.10;;;5.50;99.90;;;;;;5155070;27;20041;-84
2021/12/28 00:20:48;;;;;;;28.17;17.33;;;5.40;99.90;;;;;;5154799;27;20433;-83
2021/12/28 00:23:39;;;;;;;31.83;17.45;;;5.20;99.90;;;;;;5124983;27;20489;-83
2021/12/28 00:26:24;;;;;;;34.22;18.65;;;5.20;99.90;;;;;;5153860;27;20542;-83
2021/12/28 00:29:08;;;;;;;30.83;17.50;;;5.30;99.90;;;;;;5154266;27;20087;-84
2021/12/28 00:31:52;;;;;;;34.60;18.73;;;5.30;99.90;;;;;;5154353;27;20033;-83
2021/12/28 00:34:36;;;;;;;33.53;19.15;;;5.40;99.90;;;;;;5154630;27;20038;-83
2021/12/28 00:37:20;;;;;;;35.13;20.73;;;5.80;99.90;;;;;;5153905;27;20546;-83
2021/12/28 00:40:05;;;;;;;31.00;18.58;;;5.30;99.90;;;;;;5154541;27;20065;-83
2021/12/28 00:42:49;;;;;;;33.20;18.58;;;5.30;99.90;;;;;;5136140;27;20053;-83
2021/12/28 00:45:33;;;;;;;35.35;20.60;;;5.60;99.90;;;;;;5133945;27;20096;-83
2021/12/28 00:48:17;;;;;;;39.17;21.73;;;5.30;99.90;;;;;;5153895;27;20069;-83
2021/12/28 00:51:03;;;;;;;41.75;22.08;;;5.80;99.90;;;;;;5138668;27;20034;-83
2021/12/28 00:53:48;;;;;;;44.10;22.02;;;5.30;99.90;;;;;;5154347;27;20033;-83
2021/12/28 00:56:31;;;;;;;;;;;5.30;99.90;;;;;;5154237;27;20091;-84
2021/12/28 00:59:16;;;;;;;44.53;22.38;;;5.30;99.90;;;;;;5138286;27;19972;-83
2021/12/28 01:02:00;;;;;;;50.00;22.95;;;5.40;99.90;;;;;;5152451;27;20069;-83
2021/12/28 01:04:44;;;;;;;;;;;5.40;99.90;;;;;;5154686;27;20049;-83
2021/12/28 01:07:28;;;;;;;46.90;25.15;;;5.40;99.90;;;;;;5153561;27;19913;-83
2021/12/28 01:10:17;;;;;;;70.63;29.95;;;5.70;99.90;;;;;;5153779;27;20087;-82
2021/12/28 01:13:02;;;;;;;69.35;29.13;;;6.30;99.90;;;;;;5153845;27;20435;-83
2021/12/28 01:15:47;;;;;;;69.72;30.33;;;5.80;99.90;;;;;;5153912;27;20099;-83
2021/12/28 01:18:31;;;;;;;57.92;28.08;;;5.90;99.90;;;;;;5136405;27;20041;-83
2021/12/28 01:21:15;;;;;;;76.28;32.65;;;5.70;99.90;;;;;;5139816;27;20034;-83
2021/12/28 01:23:59;;;;;;;76.63;32.90;;;6.00;99.90;;;;;;5137478;27;20046;-83
2021/12/28 01:26:43;;;;;;;;;;;6.60;99.90;;;;;;5137834;27;20046;-83
2021/12/28 01:29:28;;;;;;;70.18;29.95;;;5.80;99.90;;;;;;5137013;27;19934;-83
2021/12/28 01:32:13;;;;;;;94.07;32.80;;;5.80;99.90;;;;;;5137362;27;20533;-83
2021/12/28 01:34:57;;;;;;;110.78;35.47;;;5.80;99.90;;;;;;5121163;27;20403;-83
2021/12/28 01:37:43;;;;;;;82.75;31.83;;;5.80;99.90;;;;;;5106876;27;20057;-83
2021/12/28 01:40:30;;;;;;;73.80;30.40;;;5.80;99.90;;;;;;5136876;27;20034;-84
2021/12/28 01:43:17;;;;;;;77.32;31.42;;;5.70;99.90;;;;;;5136914;27;20035;-83
2021/12/28 01:46:02;;;;;;;83.78;32.55;;;5.80;99.90;;;;;;5137781;27;20042;-83
2021/12/28 01:48:46;;;;;;;;;;;5.80;99.90;;;;;;5158023;27;20062;-84
2021/12/28 01:51:32;;;;;;;82.53;31.88;;;5.80;99.90;;;;;;5155695;27;20389;-83
2021/12/28 01:54:16;;;;;;;91.40;33.53;;;5.80;99.90;;;;;;5157772;27;20034;-83
2021/12/28 01:57:00;;;;;;;100.45;34.90;;;5.90;99.90;;;;;;5157483;27;20444;-83
2021/12/28 01:59:44;;;;;;;;;;;5.90;99.90;;;;;;5156724;27;20057;-83
2021/12/28 02:02:29;;;;;;;58.22;23.88;;;6.50;99.90;;;;;;5140849;27;20014;-83
2021/12/28 02:05:13;;;;;;;180.32;42.72;;;5.80;99.90;;;;;;5157355;27;20053;-83
2021/12/28 02:07:57;;;;;;;171.15;41.10;;;5.90;99.90;;;;;;5141636;27;20451;-83
2021/12/28 02:10:43;;;;;;;;;;;5.90;99.90;;;;;;5141682;27;20437;-83
2021/12/28 02:13:27;;;;;;;101.22;34.25;;;6.00;99.90;;;;;;5156961;27;20281;-83
2021/12/28 02:16:12;;;;;;;123.68;36.35;;;5.90;99.90;;;;;;5156869;27;20126;-83
2021/12/28 02:18:56;;;;;;;171.27;41.92;;;6.20;99.90;;;;;;5157110;27;20042;-83
2021/12/28 02:21:40;;;;;;;;;;;6.30;99.90;;;;;;5156461;27;20037;-83
2021/12/28 02:24:24;;;;;;;118.93;35.85;;;6.00;99.90;;;;;;5156714;27;19914;-83
2021/12/28 02:27:08;;;;;;;124.63;38.20;;;6.00;99.90;;;;;;5141014;27;20522;-83
2021/12/28 02:29:52;;;;;;;;;;;6.00;99.90;;;;;;5156508;27;20057;-83
2021/12/28 02:32:41;;;;;;;108.28;30.38;;;6.00;99.90;;;;;;5154788;27;20010;-83
2021/12/28 02:35:26;;;;;;;282.45;50.50;;;6.00;99.90;;;;;;5156457;27;20107;-83
2021/12/28 02:38:12;;;;;;;113.38;35.05;;;6.00;99.90;;;;;;5156530;27;20555;-84
2021/12/28 02:40:56;;;;;;;266.65;49.30;;;6.00;99.90;;;;;;5140915;27;20042;-83
2021/12/28 02:43:45;;;;;;;169.43;42.03;;;6.00;99.90;;;;;;5156272;27;20394;-84
2021/12/28 02:46:29;;;;;;;233.23;45.22;;;6.10;99.90;;;;;;5155878;27;20037;-83
2021/12/28 02:49:14;;;;;;;167.30;42.17;;;6.00;99.90;;;;;;5156785;27;20062;-84
2021/12/28 02:51:58;;;;;;;;;;;6.30;99.90;;;;;;5151219;27;20452;-84
2021/12/28 02:54:42;;;;;;;191.73;42.55;;;6.10;99.90;;;;;;5135326;27;19956;-84
2021/12/28 02:57:26;;;;;;;140.88;36.72;;;6.10;99.90;;;;;;5120356;27;20041;-84
2021/12/28 03:00:11;;;;;;;;;;;6.10;99.90;;;;;;5136121;27;20082;-84
2021/12/28 03:02:55;;;;;;;;;;;6.10;99.90;;;;;;5121581;27;19968;-84
2021/12/28 03:05:42;;;;;;;198.02;46.30;;;6.10;99.90;;;;;;5155761;27;20056;-84
2021/12/28 03:08:29;;;;;;;207.23;46.45;;;6.10;99.90;;;;;;5156179;27;20042;-84
2021/12/28 03:11:14;;;;;;;223.05;48.72;;;6.20;99.90;;;;;;5140179;27;20158;-84
2021/12/28 03:14:01;;;;;;;207.32;45.95;;;6.40;99.90;;;;;;5156094;27;20075;-84
2021/12/28 03:16:45;;;;;;;252.23;49.70;;;6.20;99.90;;;;;;5155438;27;20497;-83
2021/12/28 03:19:30;;;;;;;171.52;44.08;;;6.20;99.90;;;;;;5155988;27;20126;-84
2021/12/28 03:22:14;;;;;;;;;;;6.40;99.90;;;;;;5154578;27;20042;-83
2021/12/28 03:24:58;;;;;;;147.98;41.15;;;6.60;99.90;;;;;;5155768;27;20385;-84
2021/12/28 03:27:43;;;;;;;132.77;37.95;;;6.30;99.90;;;;;;5155142;27;20509;-83
2021/12/28 03:30:28;;;;;;;120.30;37.53;;;6.30;99.90;;;;;;5140205;27;20073;-84
2021/12/28 03:33:13;;;;;;;156.27;40.80;;;6.30;99.90;;;;;;5155524;27;20168;-85
2021/12/28 03:35:58;;;;;;;143.98;41.03;;;6.30;99.90;;;;;;5154496;27;20509;-84
2021/12/28 03:38:44;;;;;;;125.60;39.42;;;6.40;99.90;;;;;;5134520;27;20042;-84
2021/12/28 03:41:30;;;;;;;140.60;42.80;;;6.90;99.90;;;;;;5139335;27;20063;-84
2021/12/28 03:44:14;;;;;;;144.10;41.38;;;6.40;99.90;;;;;;5139819;27;20041;-84
2021/12/28 03:46:59;;;;;;;140.02;41.03;;;6.60;99.90;;;;;;5138988;27;20045;-84
2021/12/28 03:49:43;;;;;;;154.60;41.83;;;6.50;99.90;;;;;;5155355;27;20448;-84
2021/12/28 03:52:27;;;;;;;;;;;6.50;99.90;;;;;;5145953;27;20046;-84
2021/12/28 03:55:11;;;;;;;113.38;35.70;;;6.50;99.90;;;;;;5152920;27;20365;-84
2021/12/28 03:57:59;;;;;;;137.68;40.15;;;6.70;99.90;;;;;;5154413;27;20034;-84
2021/12/28 04:00:48;;;;;;;123.80;37.65;;;6.60;99.90;;;;;;5154728;27;20091;-84
2021/12/28 04:03:33;;;;;;;160.65;39.92;;;6.60;99.90;;;;;;5139415;27;20050;-84
2021/12/28 04:06:19;;;;;;;;;;;6.70;99.90;;;;;;5155152;27;20038;-84
2021/12/28 04:09:04;;;;;;;139.38;37.85;;;6.60;99.90;;;;;;5155057;27;19913;-84
2021/12/28 04:11:48;;;;;;;118.60;36.65;;;6.80;99.90;;;;;;5154596;27;20055;-84
2021/12/28 04:14:32;;;;;;;;;;;6.70;99.90;;;;;;5155375;27;20063;-84
2021/12/28 04:17:16;;;;;;;141.02;38.05;;;7.00;99.90;;;;;;5154608;27;19918;-84
2021/12/28 04:20:01;;;;;;;123.50;37.70;;;6.70;99.90;;;;;;5154439;27;20550;-84
2021/12/28 04:22:45;;;;;;;152.82;41.80;;;6.70;99.90;;;;;;5142329;27;20111;-84
2021/12/28 04:25:31;;;;;;;117.70;36.65;;;6.70;99.90;;;;;;5133897;27;20502;-84
2021/12/28 04:28:15;;;;;;;145.13;40.80;;;6.70;99.90;;;;;;5118328;27;20034;-83
2021/12/28 04:31:00;;;;;;;;;;;6.70;99.90;;;;;;5134713;27;20523;-84
2021/12/28 04:33:44;;;;;;;130.10;37.90;;;6.80;99.90;;;;;;5138502;27;19954;-83
2021/12/28 04:36:30;;;;;;;113.20;38.53;;;6.70;99.90;;;;;;5133699;27;20054;-84
2021/12/28 04:39:14;;;;;;;109.45;37.88;;;7.00;99.90;;;;;;5133919;27;20406;-84
2021/12/28 04:41:58;;;;;;;136.43;39.75;;;6.70;99.90;;;;;;5133273;27;20564;-84
2021/12/28 04:44:43;;;;;;;102.82;36.05;;;7.10;99.90;;;;;;5134896;27;20118;-84
2021/12/28 04:47:27;;;;;;;90.85;34.13;;;6.70;99.90;;;;;;5139041;27;20030;-84
2021/12/28 04:50:13;;;;;;;103.63;35.97;;;6.70;99.90;;;;;;5154396;27;20050;-84
2021/12/28 04:52:58;;;;;;;86.88;34.30;;;6.70;99.90;;;;;;5149353;27;20507;-84
2021/12/28 04:55:45;;;;;;;87.30;32.72;;;6.70;99.90;;;;;;5154299;27;20110;-84
2021/12/28 04:58:29;;;;;;;82.60;32.38;;;6.50;99.90;;;;;;5133750;27;20080;-84
2021/12/28 05:01:14;;;;;;;80.68;32.88;;;7.00;99.90;;;;;;5119271;27;20075;-84
2021/12/28 05:03:57;;;;;;;;;;;6.70;99.90;;;;;;5118012;28;20047;-85
2021/12/28 05:06:42;;;;;;;85.10;32.05;;;6.70;99.90;;;;;;5133487;27;20048;-84
2021/12/28 05:09:26;;;;;;;83.13;31.58;;;6.70;99.90;;;;;;5118002;28;20037;-84
2021/12/28 05:12:10;;;;;;;;;;;6.70;99.90;;;;;;5144461;27;20080;-85
2021/12/28 05:14:58;;;;;;;54.40;23.02;;;6.60;99.90;;;;;;5153576;27;20319;-84
2021/12/28 05:17:43;;;;;;;54.72;26.95;;;6.90;99.90;;;;;;5153554;27;20046;-84
2021/12/28 05:20:28;;;;;;;67.85;27.73;;;6.50;99.90;;;;;;5136718;27;20095;-84
2021/12/28 05:23:13;;;;;;;58.83;27.00;;;6.40;99.90;;;;;;5153361;27;20450;-84
2021/12/28 05:25:57;;;;;;;67.00;26.60;;;6.50;99.90;;;;;;5153288;27;20099;-84
2021/12/28 05:28:41;;;;;;;59.88;25.52;;;6.40;99.90;;;;;;5154027;27;20102;-84
2021/12/28 05:31:27;;;;;;;53.08;24.80;;;6.50;99.90;;;;;;5153438;27;20390;-84
2021/12/28 05:34:11;;;;;;;56.55;24.70;;;6.70;99.90;;;;;;5153527;27;20037;-84
2021/12/28 05:36:56;;;;;;;55.38;25.02;;;6.60;99.90;;;;;;5137794;27;20045;-84
2021/12/28 05:39:40;;;;;;;;;;;6.30;99.90;;;;;;5154338;27;20489;-84
2021/12/28 05:42:24;;;;;;;51.28;23.73;;;6.30;99.90;;;;;;5153710;27;19965;-84
2021/12/28 05:45:09;;;;;;;51.35;24.23;;;6.60;99.90;;;;;;5153405;27;20087;-84
2021/12/28 05:47:54;;;;;;;49.80;23.77;;;6.20;99.90;;;;;;5121279;27;20037;-83
2021/12/28 05:50:38;;;;;;;47.35;21.02;;;6.60;99.90;;;;;;5153311;27;20053;-85
2021/12/28 05:53:22;;;;;;;51.10;22.17;;;6.50;99.90;;;;;;5136040;27;20033;-84
2021/12/28 05:56:06;;;;;;;56.63;25.60;;;6.80;99.90;;;;;;5135719;27;20057;-86
2021/12/28 05:58:51;;;;;;;50.33;21.38;;;6.20;99.90;;;;;;5133212;28;20042;-85
2021/12/28 06:01:35;;;;;;;47.90;22.63;;;6.70;99.90;;;;;;5123994;27;20080;-85
2021/12/28 06:04:20;;;;;;;51.30;22.95;;;6.20;99.90;;;;;;5139546;27;20454;-85
2021/12/28 06:07:04;;;;;;;;;;;6.20;99.90;;;;;;5131670;27;20096;-84
2021/12/28 06:09:48;;;;;;;48.80;22.20;;;6.20;99.90;;;;;;5134768;27;20370;-84
2021/12/28 06:12:32;;;;;;;;;;;6.30;99.90;;;;;;5148115;27;20228;-83
2021/12/28 06:15:17;;;;;;;46.60;20.90;;;6.30;99.90;;;;;;5155831;27;19940;-84
2021/12/28 06:18:01;;;;;;;48.65;20.88;;;6.20;99.90;;;;;;5151729;27;20077;-83
2021/12/28 06:20:45;;;;;;;45.70;20.48;;;6.20;99.90;;;;;;5136577;27;20043;-84
2021/12/28 06:23:30;;;;;;;41.13;20.52;;;6.10;99.90;;;;;;5106525;27;20077;-84
2021/12/28 06:26:14;;;;;;;45.53;20.88;;;6.10;99.90;;;;;;5120298;27;20513;-83
2021/12/28 06:28:58;;;;;;;;;;;6.10;99.90;;;;;;5136583;27;20104;-82
2021/12/28 06:31:42;;;;;;;;;;;6.10;99.90;;;;;;5153074;27;19937;-84
2021/12/28 06:34:27;;;;;;;39.38;19.15;;;6.00;99.90;;;;;;5141230;27;19918;-84
2021/12/28 06:37:11;;;;;;;;;;;6.00;99.90;;;;;;5152835;27;20508;-83
2021/12/28 06:39:55;;;;;;;39.85;18.80;;;6.10;99.90;;;;;;5125267;27;19918;-84
2021/12/28 06:42:40;;;;;;;40.08;18.92;;;5.90;99.90;;;;;;5121198;27;20465;-84
2021/12/28 06:45:24;;;;;;;37.53;17.90;;;6.00;99.90;;;;;;5145043;27;20073;-83
2021/12/28 06:48:09;;;;;;;42.90;20.20;;;6.00;99.90;;;;;;5119749;27;20061;-84
2021/12/28 06:50:53;;;;;;;37.53;18.92;;;6.20;99.90;;;;;;5120616;27;20084;-84
2021/12/28 06:53:37;;;;;;;;;;;6.00;99.90;;;;;;5136142;27;20042;-84
2021/12/28 06:56:21;;;;;;;37.47;18.10;;;5.90;99.90;;;;;;5135255;27;20189;-84
2021/12/28 06:59:05;;;;;;;;;;;5.90;99.90;;;;;;5154316;27;20386;-83
2021/12/28 07:01:50;;;;;;;33.15;16.38;;;5.90;99.90;;;;;;5156559;27;19914;-84
2021/12/28 07:04:34;;;;;;;;;;;6.00;99.90;;;;;;5156190;27;20087;-83
2021/12/28 07:07:19;;;;;;;38.95;17.05;;;5.90;99.90;;;;;;5125023;27;19969;-83
2021/12/28 07:10:06;;;;;;;34.00;16.50;;;5.90;99.90;;;;;;5155719;27;20045;-83
2021/12/28 07:12:50;;;;;;;33.42;17.02;;;5.90;99.90;;;;;;5154206;27;20037;-84
2021/12/28 07:15:35;;;;;;;30.65;15.73;;;6.00;99.90;;;;;;5155202;27;20107;-84
2021/12/28 07:18:19;;;;;;;31.95;15.88;;;6.00;99.90;;;;;;5153102;27;20103;-83
2021/12/28 07:21:04;;;;;;;30.17;15.07;;;6.00;99.90;;;;;;5152871;27;20394;-83
2021/12/28 07:23:48;;;;;;;40.63;16.38;;;6.10;99.90;;;;;;5155418;27;20446;-85
2021/12/28 07:26:33;;;;;;;32.95;16.67;;;6.00;99.90;;;;;;5154338;27;20493;-84
2021/12/28 07:29:17;;;;;;;32.97;14.77;;;6.20;99.90;;;;;;5153699;27;20077;-83
2021/12/28 07:32:04;;;;;;;34.25;15.35;;;6.00;99.90;;;;;;5154091;27;20044;-83
2021/12/28 07:34:48;;;;;;;33.35;15.90;;;6.00;99.90;;;;;;5138020;27;20038;-84
2021/12/28 07:37:33;;;;;;;32.53;14.57;;;6.40;99.90;;;;;;5138787;27;20058;-84
2021/12/28 07:40:17;;;;;;;31.95;16.52;;;6.00;99.90;;;;;;5154399;27;20041;-84
2021/12/28 07:43:01;;;;;;;29.70;15.45;;;6.00;99.90;;;;;;5155163;27;20037;-84
2021/12/28 07:45:46;;;;;;;36.13;16.23;;;6.00;99.90;;;;;;5138659;27;20089;-84
2021/12/28 07:48:31;;;;;;;34.20;16.38;;;6.00;99.90;;;;;;5152218;27;20559;-83
2021/12/28 07:51:15;;;;;;;35.75;16.25;;;6.00;99.90;;;;;;5153064;27;20068;-83
2021/12/28 07:53:59;;;;;;;26.98;12.95;;;6.00;99.90;;;;;;5137965;27;20033;-85
2021/12/28 07:56:43;;;;;;;32.08;14.43;;;6.30;99.90;;;;;;5154403;27;20041;-84
2021/12/28 07:59:27;;;;;;;;;;;6.00;99.90;;;;;;5153057;27;20110;-84
2021/12/28 08:02:11;;;;;;;33.67;13.43;;;6.20;99.90;;;;;;5152327;27;20370;-84
2021/12/28 08:04:56;;;;;;;26.15;12.60;;;6.00;99.90;;;;;;5153674;27;20135;-84
2021/12/28 08:07:40;;;;;;;;;;;6.00;99.90;;;;;;5153172;27;20114;-84
2021/12/28 08:10:25;;;;;;;26.60;11.52;;;6.00;99.90;;;;;;5153437;27;19914;-84
2021/12/28 08:13:10;;;;;;;24.23;11.45;;;6.20;99.90;;;;;;5138859;27;20498;-84
2021/12/28 08:15:55;;;;;;;22.83;11.63;;;6.40;99.90;;;;;;5154042;27;20631;-84
2021/12/28 08:18:40;;;;;;;26.00;11.93;;;6.10;99.90;;;;;;5138882;27;20030;-84
2021/12/28 08:21:25;;;;;;;;;;;6.10;99.90;;;;;;5153563;27;20069;-84
2021/12/28 08:24:10;;;;;;;30.17;11.90;;;6.10;99.90;;;;;;5154230;27;19913;-84
2021/12/28 08:26:54;;;;;;;24.45;10.95;;;6.10;99.90;;;;;;5152535;27;20065;-84
2021/12/28 08:29:38;;;;;;;38.40;11.82;;;6.20;99.90;;;;;;5137480;27;20030;-84
2021/12/28 08:32:23;;;;;;;22.83;9.90;;;6.30;99.90;;;;;;5153386;27;20602;-84
2021/12/28 08:35:09;;;;;;;25.73;11.18;;;6.60;99.90;;;;;;5134231;27;20056;-84
2021/12/28 08:37:54;;;;;;;31.83;10.90;;;6.30;99.90;;;;;;5154153;27;20042;-84
2021/12/28 08:40:39;;;;;;;;;;;6.30;99.90;;;;;;5137595;27;20257;-84
2021/12/28 08:43:24;;;;;;;26.50;10.38;;;6.50;99.90;;;;;;5153403;27;19922;-84
2021/12/28 08:46:08;;;;;;;23.73;9.63;;;6.40;99.90;;;;;;5153811;27;20477;-84
2021/12/28 08:48:54;;;;;;;19.00;9.63;;;6.40;99.90;;;;;;5153362;27;20043;-84
2021/12/28 08:51:39;;;;;;;20.90;10.57;;;6.40;99.90;;;;;;5152844;27;20033;-84
2021/12/28 08:54:23;;;;;;;27.88;9.20;;;6.40;99.90;;;;;;5136885;27;20033;-84
2021/12/28 08:57:07;;;;;;;;;;;6.50;99.90;;;;;;5154408;27;20033;-84
2021/12/28 08:59:52;;;;;;;19.92;9.55;;;6.50;99.90;;;;;;5154553;27;20010;-85
2021/12/28 09:02:36;;;;;;;;;;;7.00;99.90;;;;;;5154397;27;20041;-84
2021/12/28 09:05:20;;;;;;;23.45;8.00;;;6.60;99.90;;;;;;5127026;28;19922;-83
2021/12/28 09:08:08;;;;;;;20.63;7.47;;;7.10;99.90;;;;;;5148623;27;20440;-84
2021/12/28 09:10:52;;;;;;;23.55;8.63;;;6.90;99.90;;;;;;5152331;27;20117;-85
2021/12/28 09:13:37;;;;;;;;;;;6.70;99.90;;;;;;5154056;27;20033;-84
2021/12/28 09:16:22;;;;;;;;;;;6.80;99.90;;;;;;5138322;27;19914;-84
2021/12/28 09:19:06;;;;;;;18.52;7.90;;;6.80;99.90;;;;;;5103678;28;19964;-84
2021/12/28 09:21:51;;;;;;;21.40;7.80;;;6.80;99.90;;;;;;5118131;28;20087;-84
2021/12/28 09:24:36;;;;;;;30.30;8.32;;;6.90;99.90;;;;;;5117292;28;20085;-84
2021/12/28 09:27:20;;;;;;;15.65;7.15;;;6.90;99.90;;;;;;5117788;28;20445;-84
2021/12/28 09:30:06;;;;;;;18.17;7.55;;;7.50;99.90;;;;;;5132774;27;20104;-84
2021/12/28 09:32:51;;;;;;;19.30;7.63;;;7.00;99.90;;;;;;5130783;28;20041;-84
2021/12/28 09:35:36;;;;;;;19.02;6.90;;;7.00;99.90;;;;;;5133550;27;20041;-84
2021/12/28 09:38:21;;;;;;;21.73;7.28;;;7.10;99.90;;;;;;5133285;27;20062;-84
2021/12/28 09:41:06;;;;;;;20.48;6.78;;;7.20;99.90;;;;;;5152836;27;20501;-84
2021/12/28 09:43:50;;;;;;;18.13;6.85;;;7.20;99.90;;;;;;5140511;27;20042;-83
2021/12/28 09:46:34;;;;;;;20.52;6.60;;;7.20;99.90;;;;;;5155202;27;20098;-83
2021/12/28 09:49:19;;;;;;;19.05;6.70;;;7.70;99.90;;;;;;5140410;27;20111;-84
2021/12/28 09:52:04;;;;;;;;;;;7.30;99.90;;;;;;5140643;27;20045;-87
2021/12/28 09:54:49;;;;;;;18.90;6.68;;;7.30;99.90;;;;;;5136540;27;20196;-83
2021/12/28 09:57:33;;;;;;;15.45;6.32;;;7.30;99.90;;;;;;5150516;27;20053;-83
2021/12/28 10:00:18;;;;;;;22.40;6.80;;;7.40;99.90;;;;;;5152863;27;20038;-83
2021/12/28 10:03:03;;;;;;;21.80;7.38;;;7.40;99.90;;;;;;5138939;27;20041;-84
2021/12/28 10:05:47;;;;;;;15.50;6.65;;;7.40;99.90;;;;;;5150650;27;20077;-84
2021/12/28 10:08:32;;;;;;;20.73;5.90;;;8.00;99.90;;;;;;5128325;27;20033;-84
2021/12/28 10:11:30;;;;;;;15.63;5.80;;;7.50;99.90;;;;;;5125454;27;20119;-84
2021/12/28 10:14:23;;;;;;;18.95;5.78;;;7.50;99.90;;;;;;5156025;27;20034;-84
2021/12/28 10:17:08;;;;;;;21.80;7.55;;;7.50;99.90;;;;;;5156011;27;20481;-83
2021/12/28 10:19:52;;;;;;;16.95;7.75;;;7.50;99.90;;;;;;5120459;27;20122;-84
2021/12/28 10:22:42;;;;;;;21.08;6.10;;;7.50;99.90;;;;;;5134564;27;20034;-83
2021/12/28 10:25:30;;;;;;;20.20;7.00;;;7.60;99.90;;;;;;5119380;27;20061;-83
2021/12/28 10:28:20;;;;;;;18.20;6.95;;;7.50;99.90;;;;;;5150711;27;20038;-83
2021/12/28 10:31:17;;;;;;;19.48;6.82;;;7.60;99.90;;;;;;5155633;27;20482;-83
2021/12/28 10:34:02;;;;;;;20.27;8.15;;;7.50;99.90;;;;;;5134777;27;20482;-83
2021/12/28 10:36:46;;;;;;;21.50;7.47;;;7.60;99.90;;;;;;5118756;27;20509;-83
2021/12/28 10:39:48;;;;;;;18.10;6.85;;;7.50;99.90;;;;;;5119349;27;20482;-83
2021/12/28 10:42:44;;;;;;;16.60;7.18;;;7.60;99.90;;;;;;5146715;27;20111;-84
2021/12/28 10:45:36;;;;;;;26.65;7.60;;;7.50;99.90;;;;;;5155206;27;20057;-83
2021/12/28 10:48:26;;;;;;;21.70;7.95;;;7.70;99.90;;;;;;5155429;27;20034;-83
2021/12/28 10:51:21;;;;;;;23.10;7.00;;;7.50;99.90;;;;;;5139116;27;20081;-83
2021/12/28 10:56:57;;;;;;;24.80;8.98;;;7.50;99.90;;;;;;5156081;27;20080;-83
2021/12/28 10:59:42;;;;;;;24.00;7.60;;;7.70;99.90;;;;;;5152576;27;20037;-83
2021/12/28 11:02:26;;;;;;;22.65;7.47;;;7.40;99.90;;;;;;5145571;27;20038;-83
2021/12/28 11:05:29;;;;;;;;;;;7.70;99.90;;;;;;5134749;27;20099;-83
2021/12/28 11:08:15;;;;;;;19.38;8.02;;;7.40;99.90;;;;;;5134787;27;20285;-84
2021/12/28 11:11:03;;;;;;;18.25;8.63;;;7.40;99.90;;;;;;5150420;27;20033;-86
2021/12/28 11:13:48;;;;;;;20.75;8.20;;;7.40;99.90;;;;;;5135033;27;20086;-84
2021/12/28 11:16:33;;;;;;;18.55;8.85;;;7.40;99.90;;;;;;5130674;27;20087;-85
2021/12/28 11:19:27;;;;;;;17.52;8.98;;;7.30;99.90;;;;;;5138421;27;20046;-83
2021/12/28 11:22:11;;;;;;;;;;;7.30;99.90;;;;;;5149620;27;20108;-83
2021/12/28 11:24:56;;;;;;;18.52;8.20;;;7.30;99.90;;;;;;5131392;27;19957;-85
2021/12/28 11:27:40;;;;;;;25.63;9.02;;;7.30;99.90;;;;;;5134318;27;20041;-85
2021/12/28 11:30:24;;;;;;;21.65;9.48;;;7.40;99.90;;;;;;5145327;27;20029;-84
2021/12/28 11:33:09;;;;;;;20.05;9.30;;;7.40;99.90;;;;;;5132323;27;20041;-84
2021/12/28 11:35:53;;;;;;;;;;;7.40;99.90;;;;;;5151888;27;20053;-84
2021/12/28 11:38:39;;;;;;;20.88;10.00;;;7.40;99.90;;;;;;5155615;27;20488;-85
2021/12/28 11:41:25;;;;;;;17.88;10.13;;;7.50;99.90;;;;;;5154794;27;20041;-84
2021/12/28 11:44:10;;;;;;;20.48;9.88;;;7.60;99.90;;;;;;5155697;27;20041;-85
2021/12/28 11:46:57;;;;;;;25.35;11.60;;;7.50;99.90;;;;;;5155071;27;20153;-84
2021/12/28 11:49:44;;;;;;;22.23;10.40;;;7.80;99.90;;;;;;5155643;27;20130;-84
2021/12/28 11:52:28;;;;;;;20.85;10.73;;;7.50;99.90;;;;;;5138857;27;20538;-84
2021/12/28 11:55:13;;;;;;;21.20;11.32;;;7.50;99.90;;;;;;5140000;27;20042;-85
2021/12/28 11:57:57;;;;;;;27.55;11.40;;;7.60;99.90;;;;;;5140499;27;20175;-85
2021/12/28 12:00:43;;;;;;;21.40;11.35;;;7.60;99.90;;;;;;5134500;27;20058;-86
2021/12/28 12:03:34;;;;;;;17.92;11.00;;;8.30;99.90;;;;;;5148467;27;20102;-86
2021/12/28 12:06:38;;;;;;;18.48;10.63;;;7.60;99.90;;;;;;5134164;27;20050;-87
2021/12/28 12:09:24;;;;;;;18.08;9.77;;;7.90;99.90;;;;;;5118882;27;20563;-88
2021/12/28 12:12:13;;;;;;;22.42;9.50;;;7.60;99.90;;;;;;5132208;27;20038;-86
2021/12/28 12:14:57;;;;;;;16.98;10.23;;;7.60;99.90;;;;;;5132376;27;20046;-87
2021/12/28 12:17:43;;;;;;;14.77;8.73;;;7.70;99.90;;;;;;5117431;27;20078;-88
2021/12/28 12:20:33;;;;;;;17.90;10.32;;;7.80;99.90;;;;;;5133023;27;20033;-87
2021/12/28 12:23:21;;;;;;;18.52;8.93;;;7.70;99.90;;;;;;5132858;27;20081;-87
2021/12/28 12:26:08;;;;;;;16.58;9.82;;;7.70;99.90;;;;;;5134133;27;20094;-87
2021/12/28 12:28:54;;;;;;;15.80;10.60;;;7.70;99.90;;;;;;5152593;27;20042;-87
2021/12/28 12:31:41;;;;;;;17.08;10.88;;;7.70;99.90;;;;;;5137763;27;20138;-89
2021/12/28 12:34:27;;;;;;;16.17;9.13;;;7.80;99.90;;;;;;5153193;27;20042;-87
2021/12/28 12:37:21;;;;;;;14.80;10.20;;;7.80;99.90;;;;;;5122271;27;20049;-87
2021/12/28 12:40:06;;;;;;;14.25;8.30;;;7.80;99.90;;;;;;5152563;27;20034;-87
2021/12/28 12:43:14;;;;;;;17.95;9.55;;;7.80;99.90;;;;;;5108065;27;20493;-87
2021/12/28 12:46:09;;;;;;;17.33;9.68;;;7.80;99.90;;;;;;5122366;27;20537;-87
2021/12/28 12:48:54;;;;;;;17.05;9.05;;;7.80;99.90;;;;;;5141821;27;20081;-84
2021/12/28 12:51:46;;;;;;;;;;;7.80;99.90;;;;;;5139708;27;20046;-87
2021/12/28 12:54:40;;;;;;;17.77;10.38;;;7.90;99.90;;;;;;5138639;27;19914;-87
2021/12/28 12:57:29;;;;;;;;;;;7.90;99.90;;;;;;5139706;27;20193;-87
2021/12/28 13:00:16;;;;;;;16.50;10.63;;;7.90;99.90;;;;;;5135494;27;19918;-90
2021/12/28 13:03:01;;;;;;;18.75;11.05;;;7.90;99.90;;;;;;5152551;27;20122;-92
2021/12/28 13:05:45;;;;;;;21.50;10.27;;;7.90;99.90;;;;;;5152525;27;20091;-87
2021/12/28 13:08:29;;;;;;;15.43;9.80;;;7.90;99.90;;;;;;5122744;27;20107;-87
2021/12/28 13:11:29;;;;;;;16.88;10.85;;;7.90;99.90;;;;;;5137812;27;20037;-88
2021/12/28 13:14:13;;;;;;;19.75;10.48;;;8.00;99.90;;;;;;5139958;27;20538;-87
2021/12/28 13:17:04;;;;;;;17.67;11.30;;;8.00;99.90;;;;;;5125032;27;20042;-85
2021/12/28 13:20:00;;;;;;;20.65;12.27;;;8.00;99.90;;;;;;5144239;27;20035;-88
2021/12/28 13:22:50;;;;;;;22.17;11.65;;;8.00;99.90;;;;;;5144480;27;20029;-87
2021/12/28 13:25:45;;;;;;;15.77;10.90;;;8.00;99.90;;;;;;5128440;27;20045;-87
2021/12/28 13:28:29;;;;;;;15.27;10.23;;;8.10;99.90;;;;;;5136250;27;20042;-88
2021/12/28 13:31:13;;;;;;;19.58;11.40;;;8.10;99.90;;;;;;5137586;27;20050;-88
2021/12/28 13:34:00;;;;;;;23.23;12.13;;;8.10;99.90;;;;;;5122309;27;20091;-89
2021/12/28 13:36:52;;;;;;;16.02;11.27;;;8.10;99.90;;;;;;5108520;27;20387;-88
2021/12/28 13:39:43;;;;;;;21.45;12.48;;;8.10;99.90;;;;;;5131830;27;20037;-87
2021/12/28 13:42:27;;;;;;;23.58;13.07;;;8.10;99.90;;;;;;5157521;27;20038;-87
2021/12/28 13:45:46;;;;;;;19.38;12.15;;;8.10;99.90;;;;;;5126453;27;20049;-88
2021/12/28 13:48:35;;;;;;;17.73;11.52;;;8.70;99.90;;;;;;5131610;27;20034;-87
2021/12/28 13:51:22;;;;;;;17.95;11.95;;;8.10;99.90;;;;;;5123575;27;20046;-85
2021/12/28 13:54:07;;;;;;;22.85;12.40;;;8.10;99.90;;;;;;5136313;27;20447;-87
2021/12/28 13:56:52;;;;;;;19.90;11.55;;;8.20;99.90;;;;;;5121238;27;20065;-90
2021/12/28 13:59:36;;;;;;;18.92;12.50;;;8.20;99.90;;;;;;5136722;27;20038;-88
2021/12/28 14:02:21;;;;;;;18.88;11.55;;;8.20;99.90;;;;;;5120567;27;20035;-86
2021/12/28 14:05:07;;;;;;;21.70;13.38;;;8.20;99.90;;;;;;5147248;27;20109;-85
2021/12/28 14:07:52;;;;;;;20.42;12.52;;;8.20;99.90;;;;;;5153354;27;20037;-87
2021/12/28 14:10:36;;;;;;;19.90;12.90;;;8.30;99.90;;;;;;5157001;27;20394;-88
2021/12/28 14:13:22;;;;;;;27.23;13.93;;;8.20;99.90;;;;;;5140954;27;20103;-85
2021/12/28 14:16:10;;;;;;;24.48;12.77;;;8.20;99.90;;;;;;5139264;27;20081;-84
2021/12/28 14:18:55;;;;;;;21.52;13.27;;;8.20;99.90;;;;;;5140598;27;20110;-87
2021/12/28 14:21:46;;;;;;;24.83;14.60;;;8.20;99.90;;;;;;5138285;27;20037;-87
2021/12/28 14:24:31;;;;;;;12.38;7.47;;;8.20;99.90;;;;;;5148703;27;20034;-87
2021/12/28 14:27:23;;;;;;;8.35;4.63;;;8.30;99.90;;;;;;5154019;27;20394;-87
2021/12/28 14:30:09;;;;;;;8.98;5.32;;;8.30;99.90;;;;;;5139236;27;20501;-85